Flight Track Log - Related Links

Times and Time Zones

All times are in EDT time to prevent confusion due to time zone crossing. See the PDT4314 flight status page for this flight to view local times or setup timezone preferences in your user account.

Time Position Orientation Groundspeed Altitude Reporting Facility
EDT Latitude Longitude Course Direction KTS MPH feet Rate Location/Type
Thu 04:56:45 PM 39.8833 -75.2000 North 124 143 700  Level Philadelphia TRACON
Thu 04:57:45 PM 39.9167 -75.1667 37° Northeast 148 170 2,100 1,300 Climbing Philadelphia TRACON
Thu 04:58:45 PM 39.9500 -75.1333 37° Northeast 160 184 3,300 1,300 Climbing Philadelphia TRACON
Thu 04:59:00 PM 40.0128 -75.3628 323° Northwest  Level FlightAware Approximate
Thu 04:59:45 PM 40.0000 -75.1500 346° North 151 174 4,700  Level Philadelphia TRACON
Thu 05:00:00 PM 40.0607 -75.4107 323° Northwest  Level FlightAware Approximate
Thu 05:00:45 PM 40.0167 -75.1833 303° West 176 203 6,000  Level Philadelphia TRACON
Thu 05:01:00 PM 40.1094 -75.4521 303° West  Level FlightAware Approximate
Thu 05:01:46 PM 40.0000 -75.2500 252° West 172 198 7,000  Level Philadelphia TRACON
Thu 05:02:00 PM 40.1551 -75.5000 North  Level FlightAware Approximate
Thu 05:02:45 PM 40.0333 -75.2833 323° Northwest 216 249 7,400  Level Philadelphia TRACON
Thu 05:03:45 PM 40.0667 -75.3333 311° West 177 204 8,700 1,050 Climbing Philadelphia TRACON
Thu 05:04:45 PM 40.1000 -75.4000 303° West 182 209 9,500 843 Climbing Philadelphia TRACON
Thu 05:05:46 PM 40.1333 -75.4500 311° West 179 206 10,400 785 Climbing Philadelphia TRACON
Thu 05:07:00 PM 40.1716 -75.5073 311° West  Level FlightAware Approximate
Thu 05:07:56 PM 40.2108 -75.5408 311° West 186 214 12,000  Level New York Center
Thu 05:08:57 PM 40.2483 -75.5953 312° West 192 221 12,000  Level New York Center
Thu 05:09:57 PM 40.2836 -75.6522 309° West 213 245 12,000  Level New York Center
Thu 05:10:56 PM 40.3247 -75.7122 312° West 213 245 12,000  Level New York Center
Thu 05:11:56 PM 40.3858 -75.7439 338° Northwest 213 245 12,000  Level New York Center
Thu 05:12:56 PM 40.4408 -75.7750 337° Northwest 213 245 12,000  Level New York Center
Thu 05:13:56 PM 40.4956 -75.8117 333° Northwest 213 245 12,000  Level New York Center
Thu 05:14:56 PM 40.5467 -75.8347 341° North 213 245 12,000  Level New York Center
Thu 05:15:57 PM 40.6036 -75.8661 337° Northwest 213 245 12,000  Level New York Center
Thu 05:16:56 PM 40.6647 -75.9008 337° Northwest 213 245 12,000  Level New York Center
Thu 05:17:56 PM 40.7219 -75.9269 341° North 213 245 12,000  Level New York Center
Thu 05:18:56 PM 40.7786 -75.9642 334° Northwest 213 245 12,000  Level New York Center
Thu 05:19:56 PM 40.8297 -75.9900 339° North 213 245 12,000  Level New York Center
Thu 05:20:57 PM 40.8869 -76.0164 341° North 208 239 12,000  Level New York Center
Thu 05:21:56 PM 40.9478 -76.0539 335° Northwest 208 239 12,000  Level New York Center
Thu 05:23:00 PM 41.0025 -76.0835 338° Northwest  Level FlightAware Approximate
Thu 05:23:56 PM 41.0558 -76.1064 338° Northwest 213 245 12,000  Level New York Center
Thu 05:24:56 PM 41.1106 -76.1411 334° Northwest 213 245 12,000  Level New York Center
Thu 05:25:56 PM 41.1714 -76.1761 337° Northwest 213 245 12,000  Level New York Center
Thu 05:26:56 PM 41.2283 -76.2028 341° North 213 245 12,000  Level New York Center
Thu 05:27:57 PM 41.2908 -76.2050 358° North 213 245 12,000  Level New York Center
Thu 05:28:57 PM 41.3453 -76.2011 North 218 251 12,000  Level New York Center
Thu 05:29:57 PM 41.4142 -76.1983 North 218 251 12,000  Level New York Center
Thu 05:30:57 PM 41.4728 -76.1922 North 218 251 12,000  Level New York Center
Thu 05:31:57 PM 41.5333 -76.1831 North 218 251 12,000  Level New York Center
Thu 05:32:57 PM 41.5897 -76.1794 North 218 251 12,000 -202 Level New York Center
Thu 05:33:56 PM 41.6503 -76.1761 North 218 251 11,600 -756 Descending New York Center
Thu 05:34:56 PM 41.7194 -76.1706 North 218 251 10,500 -1,050 Descending New York Center
Thu 05:35:56 PM 41.7822 -76.1617 North 218 251 9,500 -950 Descending New York Center
Thu 05:36:56 PM 41.8439 -76.1333 19° North 223 257 8,600 -950 Descending New York Center
Thu 05:37:56 PM 41.8989 -76.1125 16° North 229 264 7,600 -1,000 Descending New York Center
Thu 05:38:56 PM 41.9603 -76.0897 15° North 229 264 6,600 -1,041 Descending New York Center
Thu 05:39:57 PM 42.0264 -76.0586 19° North 229 264 5,500 -900 Descending New York Center
Thu 05:40:56 PM 42.0736 -76.0261 27° Northeast 229 264 4,800 -756 Descending New York Center
Thu 05:41:56 PM 42.1111 -75.9789 43° Northeast 204 235 4,000 -893 Descending New York Center
Thu 05:42:57 PM 42.1436 -75.9478 35° Northeast 169 194 3,000 -950 Descending New York Center
Thu 05:43:56 PM 42.1747 -75.9531 353° North 124 143 2,100 -915 Descending New York Center

Login

Don't have an account? Register now (free) for customized features, flight alerts, and more!